sensor_id;sensor_type;location;lat;lon;timestamp;P1;durP1;ratioP1;P2;durP2;ratioP2
14518;SDS011;7346;50.846;4.388;2022-09-09T00:01:51;4.50;;;1.50;;
14518;SDS011;7346;50.846;4.388;2022-09-09T00:04:23;4.60;;;1.87;;
14518;SDS011;7346;50.846;4.388;2022-09-09T00:06:56;8.37;;;1.77;;
14518;SDS011;7346;50.846;4.388;2022-09-09T00:09:30;4.17;;;1.50;;
14518;SDS011;7346;50.846;4.388;2022-09-09T00:12:04;4.47;;;1.30;;
14518;SDS011;7346;50.846;4.388;2022-09-09T00:14:39;4.40;;;1.20;;
14518;SDS011;7346;50.846;4.388;2022-09-09T00:17:14;5.77;;;1.10;;
14518;SDS011;7346;50.846;4.388;2022-09-09T00:19:49;4.87;;;1.60;;
14518;SDS011;7346;50.846;4.388;2022-09-09T00:22:23;5.37;;;1.30;;
14518;SDS011;7346;50.846;4.388;2022-09-09T00:24:55;7.10;;;1.37;;
14518;SDS011;7346;50.846;4.388;2022-09-09T00:27:25;5.17;;;1.50;;
14518;SDS011;7346;50.846;4.388;2022-09-09T00:30:12;4.20;;;1.30;;
14518;SDS011;7346;50.846;4.388;2022-09-09T00:32:43;2.47;;;1.07;;
14518;SDS011;7346;50.846;4.388;2022-09-09T00:35:14;4.80;;;1.27;;
14518;SDS011;7346;50.846;4.388;2022-09-09T00:37:44;6.77;;;1.30;;
14518;SDS011;7346;50.846;4.388;2022-09-09T00:40:18;5.37;;;1.20;;
14518;SDS011;7346;50.846;4.388;2022-09-09T00:42:54;4.00;;;1.13;;
14518;SDS011;7346;50.846;4.388;2022-09-09T00:45:52;6.07;;;1.40;;
14518;SDS011;7346;50.846;4.388;2022-09-09T00:48:45;3.67;;;1.10;;
14518;SDS011;7346;50.846;4.388;2022-09-09T00:51:21;3.90;;;1.00;;
14518;SDS011;7346;50.846;4.388;2022-09-09T00:54:05;3.37;;;1.23;;
14518;SDS011;7346;50.846;4.388;2022-09-09T00:56:45;5.77;;;1.40;;
14518;SDS011;7346;50.846;4.388;2022-09-09T00:59:22;7.43;;;1.20;;
14518;SDS011;7346;50.846;4.388;2022-09-09T01:01:54;6.83;;;1.20;;
14518;SDS011;7346;50.846;4.388;2022-09-09T01:04:23;3.97;;;1.13;;
14518;SDS011;7346;50.846;4.388;2022-09-09T01:06:59;4.67;;;1.10;;
14518;SDS011;7346;50.846;4.388;2022-09-09T01:09:32;5.70;;;1.30;;
14518;SDS011;7346;50.846;4.388;2022-09-09T01:12:11;5.80;;;1.27;;
14518;SDS011;7346;50.846;4.388;2022-09-09T01:14:43;5.23;;;1.60;;
14518;SDS011;7346;50.846;4.388;2022-09-09T01:17:17;6.97;;;1.10;;
14518;SDS011;7346;50.846;4.388;2022-09-09T01:19:54;6.03;;;1.30;;
14518;SDS011;7346;50.846;4.388;2022-09-09T01:22:29;7.93;;;1.70;;
14518;SDS011;7346;50.846;4.388;2022-09-09T01:25:09;6.70;;;1.30;;
14518;SDS011;7346;50.846;4.388;2022-09-09T01:27:46;5.53;;;1.60;;
14518;SDS011;7346;50.846;4.388;2022-09-09T01:30:15;5.37;;;1.40;;
14518;SDS011;7346;50.846;4.388;2022-09-09T01:32:44;7.10;;;1.27;;
14518;SDS011;7346;50.846;4.388;2022-09-09T01:35:15;6.57;;;1.70;;
14518;SDS011;7346;50.846;4.388;2022-09-09T01:37:54;7.60;;;1.37;;
14518;SDS011;7346;50.846;4.388;2022-09-09T01:40:21;6.27;;;1.70;;
14518;SDS011;7346;50.846;4.388;2022-09-09T01:42:49;5.50;;;1.40;;
14518;SDS011;7346;50.846;4.388;2022-09-09T01:45:17;6.47;;;1.57;;
14518;SDS011;7346;50.846;4.388;2022-09-09T01:47:44;9.03;;;1.77;;
14518;SDS011;7346;50.846;4.388;2022-09-09T01:50:12;7.67;;;1.70;;
14518;SDS011;7346;50.846;4.388;2022-09-09T01:52:41;7.70;;;2.00;;
14518;SDS011;7346;50.846;4.388;2022-09-09T01:55:12;6.93;;;1.47;;
14518;SDS011;7346;50.846;4.388;2022-09-09T01:57:41;6.73;;;1.50;;
14518;SDS011;7346;50.846;4.388;2022-09-09T02:00:15;8.77;;;1.30;;
14518;SDS011;7346;50.846;4.388;2022-09-09T02:02:44;10.07;;;2.07;;
14518;SDS011;7346;50.846;4.388;2022-09-09T02:05:23;6.30;;;1.80;;
14518;SDS011;7346;50.846;4.388;2022-09-09T02:08:03;7.90;;;1.97;;
14518;SDS011;7346;50.846;4.388;2022-09-09T02:10:33;6.83;;;1.67;;
14518;SDS011;7346;50.846;4.388;2022-09-09T02:13:07;5.37;;;1.70;;
14518;SDS011;7346;50.846;4.388;2022-09-09T02:15:39;7.97;;;1.70;;
14518;SDS011;7346;50.846;4.388;2022-09-09T02:18:13;9.70;;;2.07;;
14518;SDS011;7346;50.846;4.388;2022-09-09T02:20:43;8.20;;;1.80;;
14518;SDS011;7346;50.846;4.388;2022-09-09T02:23:12;9.60;;;2.53;;
14518;SDS011;7346;50.846;4.388;2022-09-09T02:25:41;6.80;;;2.00;;
14518;SDS011;7346;50.846;4.388;2022-09-09T02:28:09;8.23;;;1.77;;
14518;SDS011;7346;50.846;4.388;2022-09-09T02:30:40;7.93;;;1.80;;
14518;SDS011;7346;50.846;4.388;2022-09-09T02:33:08;6.73;;;1.70;;
14518;SDS011;7346;50.846;4.388;2022-09-09T02:35:38;8.33;;;2.20;;
14518;SDS011;7346;50.846;4.388;2022-09-09T02:38:07;7.10;;;1.80;;
14518;SDS011;7346;50.846;4.388;2022-09-09T02:40:38;6.07;;;1.70;;
14518;SDS011;7346;50.846;4.388;2022-09-09T02:43:05;11.57;;;2.00;;
14518;SDS011;7346;50.846;4.388;2022-09-09T02:45:34;8.17;;;1.87;;
14518;SDS011;7346;50.846;4.388;2022-09-09T02:48:11;7.37;;;1.70;;
14518;SDS011;7346;50.846;4.388;2022-09-09T02:50:46;10.87;;;2.10;;
14518;SDS011;7346;50.846;4.388;2022-09-09T02:53:22;10.27;;;2.07;;
14518;SDS011;7346;50.846;4.388;2022-09-09T02:55:52;9.40;;;1.97;;
14518;SDS011;7346;50.846;4.388;2022-09-09T02:58:24;7.60;;;1.70;;
14518;SDS011;7346;50.846;4.388;2022-09-09T03:00:52;9.97;;;1.73;;
14518;SDS011;7346;50.846;4.388;2022-09-09T03:03:20;6.90;;;1.30;;
14518;SDS011;7346;50.846;4.388;2022-09-09T03:05:47;7.87;;;1.97;;
14518;SDS011;7346;50.846;4.388;2022-09-09T03:08:14;11.90;;;2.00;;
14518;SDS011;7346;50.846;4.388;2022-09-09T03:10:42;10.43;;;2.50;;
14518;SDS011;7346;50.846;4.388;2022-09-09T03:13:09;11.07;;;1.80;;
14518;SDS011;7346;50.846;4.388;2022-09-09T03:15:38;11.97;;;2.03;;
14518;SDS011;7346;50.846;4.388;2022-09-09T03:18:04;8.80;;;1.87;;
14518;SDS011;7346;50.846;4.388;2022-09-09T03:20:33;7.10;;;1.60;;
14518;SDS011;7346;50.846;4.388;2022-09-09T03:23:00;10.27;;;1.97;;
14518;SDS011;7346;50.846;4.388;2022-09-09T03:25:27;8.93;;;2.00;;
14518;SDS011;7346;50.846;4.388;2022-09-09T03:27:55;10.37;;;2.10;;
14518;SDS011;7346;50.846;4.388;2022-09-09T03:30:22;8.63;;;2.10;;
14518;SDS011;7346;50.846;4.388;2022-09-09T03:32:50;7.90;;;2.03;;
14518;SDS011;7346;50.846;4.388;2022-09-09T03:35:17;12.10;;;2.27;;
14518;SDS011;7346;50.846;4.388;2022-09-09T03:37:45;7.53;;;2.10;;
14518;SDS011;7346;50.846;4.388;2022-09-09T03:40:13;9.73;;;2.40;;
14518;SDS011;7346;50.846;4.388;2022-09-09T03:42:40;13.33;;;2.17;;
14518;SDS011;7346;50.846;4.388;2022-09-09T03:45:08;7.57;;;1.97;;
14518;SDS011;7346;50.846;4.388;2022-09-09T03:47:35;9.73;;;2.30;;
14518;SDS011;7346;50.846;4.388;2022-09-09T03:50:03;10.33;;;2.23;;
14518;SDS011;7346;50.846;4.388;2022-09-09T03:52:34;12.60;;;2.50;;
14518;SDS011;7346;50.846;4.388;2022-09-09T03:55:03;12.43;;;2.30;;
14518;SDS011;7346;50.846;4.388;2022-09-09T03:57:30;10.90;;;1.90;;
14518;SDS011;7346;50.846;4.388;2022-09-09T04:00:00;9.53;;;1.70;;
14518;SDS011;7346;50.846;4.388;2022-09-09T04:02:27;9.93;;;1.83;;
14518;SDS011;7346;50.846;4.388;2022-09-09T04:04:54;8.40;;;2.10;;
14518;SDS011;7346;50.846;4.388;2022-09-09T04:07:21;7.30;;;1.87;;
14518;SDS011;7346;50.846;4.388;2022-09-09T04:09:48;9.10;;;2.47;;
14518;SDS011;7346;50.846;4.388;2022-09-09T04:12:16;8.00;;;2.20;;
14518;SDS011;7346;50.846;4.388;2022-09-09T04:14:43;10.60;;;2.23;;
14518;SDS011;7346;50.846;4.388;2022-09-09T04:17:10;12.53;;;3.00;;
14518;SDS011;7346;50.846;4.388;2022-09-09T04:19:37;16.13;;;2.80;;
14518;SDS011;7346;50.846;4.388;2022-09-09T04:22:04;10.93;;;2.27;;
14518;SDS011;7346;50.846;4.388;2022-09-09T04:24:31;12.17;;;2.23;;
14518;SDS011;7346;50.846;4.388;2022-09-09T04:26:57;14.67;;;2.40;;
14518;SDS011;7346;50.846;4.388;2022-09-09T04:29:26;11.83;;;2.33;;
14518;SDS011;7346;50.846;4.388;2022-09-09T04:31:53;15.20;;;2.70;;
14518;SDS011;7346;50.846;4.388;2022-09-09T04:34:19;8.97;;;2.57;;
14518;SDS011;7346;50.846;4.388;2022-09-09T04:36:46;8.63;;;2.60;;
14518;SDS011;7346;50.846;4.388;2022-09-09T04:39:13;9.60;;;2.23;;
14518;SDS011;7346;50.846;4.388;2022-09-09T04:41:40;8.50;;;2.20;;
14518;SDS011;7346;50.846;4.388;2022-09-09T04:44:07;17.00;;;2.83;;
14518;SDS011;7346;50.846;4.388;2022-09-09T04:46:36;13.13;;;2.40;;
14518;SDS011;7346;50.846;4.388;2022-09-09T04:49:03;11.13;;;2.40;;
14518;SDS011;7346;50.846;4.388;2022-09-09T04:51:30;9.90;;;2.10;;
14518;SDS011;7346;50.846;4.388;2022-09-09T04:53:57;13.40;;;2.40;;
14518;SDS011;7346;50.846;4.388;2022-09-09T04:56:24;9.00;;;2.20;;
14518;SDS011;7346;50.846;4.388;2022-09-09T04:58:52;9.77;;;3.37;;
14518;SDS011;7346;50.846;4.388;2022-09-09T05:01:20;9.97;;;2.77;;
14518;SDS011;7346;50.846;4.388;2022-09-09T05:03:50;13.00;;;2.23;;
14518;SDS011;7346;50.846;4.388;2022-09-09T05:06:18;11.23;;;2.30;;
14518;SDS011;7346;50.846;4.388;2022-09-09T05:08:46;10.30;;;2.77;;
14518;SDS011;7346;50.846;4.388;2022-09-09T05:11:17;9.50;;;2.67;;
14518;SDS011;7346;50.846;4.388;2022-09-09T05:13:45;13.40;;;2.87;;
14518;SDS011;7346;50.846;4.388;2022-09-09T05:16:13;12.73;;;2.50;;
14518;SDS011;7346;50.846;4.388;2022-09-09T05:18:40;9.03;;;2.17;;
14518;SDS011;7346;50.846;4.388;2022-09-09T05:21:10;12.47;;;2.50;;
14518;SDS011;7346;50.846;4.388;2022-09-09T05:23:38;9.83;;;2.23;;
14518;SDS011;7346;50.846;4.388;2022-09-09T05:26:05;8.20;;;2.53;;
14518;SDS011;7346;50.846;4.388;2022-09-09T05:28:34;11.87;;;2.50;;
14518;SDS011;7346;50.846;4.388;2022-09-09T05:31:02;13.60;;;2.67;;
14518;SDS011;7346;50.846;4.388;2022-09-09T05:33:33;11.27;;;2.67;;
14518;SDS011;7346;50.846;4.388;2022-09-09T05:36:01;11.67;;;2.60;;
14518;SDS011;7346;50.846;4.388;2022-09-09T05:38:30;9.13;;;2.30;;
14518;SDS011;7346;50.846;4.388;2022-09-09T05:40:58;12.37;;;2.67;;
14518;SDS011;7346;50.846;4.388;2022-09-09T05:43:25;11.60;;;2.43;;
14518;SDS011;7346;50.846;4.388;2022-09-09T05:46:00;11.60;;;2.60;;
14518;SDS011;7346;50.846;4.388;2022-09-09T05:48:29;16.67;;;3.30;;
14518;SDS011;7346;50.846;4.388;2022-09-09T05:50:57;8.87;;;2.80;;
14518;SDS011;7346;50.846;4.388;2022-09-09T05:53:24;12.17;;;3.13;;
14518;SDS011;7346;50.846;4.388;2022-09-09T05:55:58;8.57;;;3.10;;
14518;SDS011;7346;50.846;4.388;2022-09-09T05:58:28;15.80;;;3.40;;
14518;SDS011;7346;50.846;4.388;2022-09-09T06:01:00;15.37;;;5.77;;
14518;SDS011;7346;50.846;4.388;2022-09-09T06:03:28;14.67;;;6.97;;
14518;SDS011;7346;50.846;4.388;2022-09-09T06:05:58;11.73;;;4.50;;
14518;SDS011;7346;50.846;4.388;2022-09-09T06:08:26;12.27;;;3.70;;
14518;SDS011;7346;50.846;4.388;2022-09-09T06:10:53;13.10;;;4.77;;
14518;SDS011;7346;50.846;4.388;2022-09-09T06:13:29;11.53;;;3.60;;
14518;SDS011;7346;50.846;4.388;2022-09-09T06:15:56;11.87;;;2.80;;
14518;SDS011;7346;50.846;4.388;2022-09-09T06:18:23;14.33;;;2.37;;
14518;SDS011;7346;50.846;4.388;2022-09-09T06:20:57;10.13;;;2.40;;
14518;SDS011;7346;50.846;4.388;2022-09-09T06:23:26;11.03;;;2.63;;
14518;SDS011;7346;50.846;4.388;2022-09-09T06:26:00;13.63;;;2.87;;
14518;SDS011;7346;50.846;4.388;2022-09-09T06:28:30;9.47;;;2.43;;
14518;SDS011;7346;50.846;4.388;2022-09-09T06:30:58;15.17;;;2.63;;
14518;SDS011;7346;50.846;4.388;2022-09-09T06:33:25;10.30;;;2.40;;
14518;SDS011;7346;50.846;4.388;2022-09-09T06:35:53;9.17;;;2.10;;
14518;SDS011;7346;50.846;4.388;2022-09-09T06:38:22;9.83;;;2.57;;
14518;SDS011;7346;50.846;4.388;2022-09-09T06:40:52;16.13;;;2.80;;
14518;SDS011;7346;50.846;4.388;2022-09-09T06:43:22;10.73;;;2.37;;
14518;SDS011;7346;50.846;4.388;2022-09-09T06:45:52;12.17;;;2.40;;
14518;SDS011;7346;50.846;4.388;2022-09-09T06:48:20;12.10;;;2.00;;
14518;SDS011;7346;50.846;4.388;2022-09-09T06:50:47;10.30;;;2.33;;
14518;SDS011;7346;50.846;4.388;2022-09-09T06:53:15;7.77;;;2.03;;
14518;SDS011;7346;50.846;4.388;2022-09-09T06:55:44;11.77;;;2.90;;
14518;SDS011;7346;50.846;4.388;2022-09-09T06:58:11;10.43;;;2.60;;
14518;SDS011;7346;50.846;4.388;2022-09-09T07:00:39;10.07;;;2.23;;
14518;SDS011;7346;50.846;4.388;2022-09-09T07:03:07;14.70;;;2.47;;
14518;SDS011;7346;50.846;4.388;2022-09-09T07:05:35;13.47;;;2.30;;
14518;SDS011;7346;50.846;4.388;2022-09-09T07:08:02;10.90;;;2.10;;
14518;SDS011;7346;50.846;4.388;2022-09-09T07:10:30;9.77;;;2.00;;
14518;SDS011;7346;50.846;4.388;2022-09-09T07:12:59;14.30;;;2.70;;
14518;SDS011;7346;50.846;4.388;2022-09-09T07:15:26;10.97;;;2.00;;
14518;SDS011;7346;50.846;4.388;2022-09-09T07:17:54;12.33;;;2.33;;
14518;SDS011;7346;50.846;4.388;2022-09-09T07:20:21;15.70;;;2.80;;
14518;SDS011;7346;50.846;4.388;2022-09-09T07:22:48;13.93;;;2.67;;
14518;SDS011;7346;50.846;4.388;2022-09-09T07:25:15;11.40;;;2.40;;
14518;SDS011;7346;50.846;4.388;2022-09-09T07:27:43;10.38;;;2.05;;
14518;SDS011;7346;50.846;4.388;2022-09-09T07:30:10;8.40;;;1.75;;
14518;SDS011;7346;50.846;4.388;2022-09-09T07:32:39;8.70;;;1.97;;
14518;SDS011;7346;50.846;4.388;2022-09-09T07:35:07;10.77;;;1.80;;
14518;SDS011;7346;50.846;4.388;2022-09-09T07:37:35;6.83;;;1.80;;
14518;SDS011;7346;50.846;4.388;2022-09-09T07:40:03;14.73;;;2.50;;
14518;SDS011;7346;50.846;4.388;2022-09-09T07:42:30;12.10;;;2.33;;
14518;SDS011;7346;50.846;4.388;2022-09-09T07:44:58;7.93;;;2.00;;
14518;SDS011;7346;50.846;4.388;2022-09-09T07:47:28;10.73;;;2.40;;
14518;SDS011;7346;50.846;4.388;2022-09-09T07:49:55;7.23;;;2.30;;
14518;SDS011;7346;50.846;4.388;2022-09-09T07:52:23;8.47;;;1.83;;
14518;SDS011;7346;50.846;4.388;2022-09-09T07:54:50;13.85;;;2.42;;
14518;SDS011;7346;50.846;4.388;2022-09-09T07:57:17;8.33;;;1.93;;
14518;SDS011;7346;50.846;4.388;2022-09-09T07:59:44;8.33;;;2.40;;
14518;SDS011;7346;50.846;4.388;2022-09-09T08:02:11;9.33;;;3.40;;
14518;SDS011;7346;50.846;4.388;2022-09-09T08:04:38;9.10;;;2.27;;
14518;SDS011;7346;50.846;4.388;2022-09-09T08:07:05;10.87;;;2.30;;
14518;SDS011;7346;50.846;4.388;2022-09-09T08:09:33;10.23;;;2.00;;
14518;SDS011;7346;50.846;4.388;2022-09-09T08:12:00;9.40;;;2.38;;
14518;SDS011;7346;50.846;4.388;2022-09-09T08:14:27;10.27;;;2.43;;
14518;SDS011;7346;50.846;4.388;2022-09-09T08:16:54;9.30;;;2.20;;
14518;SDS011;7346;50.846;4.388;2022-09-09T08:19:22;13.88;;;2.60;;
14518;SDS011;7346;50.846;4.388;2022-09-09T08:21:49;8.97;;;2.10;;
14518;SDS011;7346;50.846;4.388;2022-09-09T08:24:16;12.65;;;2.03;;
14518;SDS011;7346;50.846;4.388;2022-09-09T08:26:46;14.97;;;3.00;;
14518;SDS011;7346;50.846;4.388;2022-09-09T08:29:14;10.13;;;2.20;;
14518;SDS011;7346;50.846;4.388;2022-09-09T08:31:42;8.97;;;2.60;;
14518;SDS011;7346;50.846;4.388;2022-09-09T08:34:10;11.90;;;2.42;;
14518;SDS011;7346;50.846;4.388;2022-09-09T08:36:38;8.37;;;2.13;;
14518;SDS011;7346;50.846;4.388;2022-09-09T08:39:07;10.63;;;2.23;;
14518;SDS011;7346;50.846;4.388;2022-09-09T08:45:02;9.83;;;2.23;;
14518;SDS011;7346;50.846;4.388;2022-09-09T08:47:47;8.27;;;2.33;;
14518;SDS011;7346;50.846;4.388;2022-09-09T08:50:25;8.20;;;2.20;;
14518;SDS011;7346;50.846;4.388;2022-09-09T08:52:55;9.10;;;2.13;;
14518;SDS011;7346;50.846;4.388;2022-09-09T08:55:30;8.20;;;2.13;;
14518;SDS011;7346;50.846;4.388;2022-09-09T08:58:08;12.40;;;2.07;;
14518;SDS011;7346;50.846;4.388;2022-09-09T09:00:41;7.83;;;2.03;;
14518;SDS011;7346;50.846;4.388;2022-09-09T09:03:19;10.73;;;1.90;;
14518;SDS011;7346;50.846;4.388;2022-09-09T09:05:56;10.43;;;2.20;;
14518;SDS011;7346;50.846;4.388;2022-09-09T09:08:33;7.93;;;2.33;;
14518;SDS011;7346;50.846;4.388;2022-09-09T09:11:04;6.07;;;2.13;;
14518;SDS011;7346;50.846;4.388;2022-09-09T09:13:34;8.90;;;2.70;;
14518;SDS011;7346;50.846;4.388;2022-09-09T09:16:09;9.05;;;2.53;;
14518;SDS011;7346;50.846;4.388;2022-09-09T09:18:40;10.43;;;2.00;;
14518;SDS011;7346;50.846;4.388;2022-09-09T09:21:08;9.20;;;2.20;;
14518;SDS011;7346;50.846;4.388;2022-09-09T09:23:40;9.07;;;2.20;;
14518;SDS011;7346;50.846;4.388;2022-09-09T09:26:11;8.17;;;2.43;;
14518;SDS011;7346;50.846;4.388;2022-09-09T09:28:39;8.93;;;2.37;;
14518;SDS011;7346;50.846;4.388;2022-09-09T09:31:08;9.83;;;2.93;;
14518;SDS011;7346;50.846;4.388;2022-09-09T09:33:38;10.83;;;2.70;;
14518;SDS011;7346;50.846;4.388;2022-09-09T09:36:13;7.97;;;2.00;;
14518;SDS011;7346;50.846;4.388;2022-09-09T09:38:51;6.77;;;2.43;;
14518;SDS011;7346;50.846;4.388;2022-09-09T09:41:28;10.47;;;2.23;;
14518;SDS011;7346;50.846;4.388;2022-09-09T09:43:57;11.83;;;2.57;;
14518;SDS011;7346;50.846;4.388;2022-09-09T09:46:26;6.00;;;1.93;;
14518;SDS011;7346;50.846;4.388;2022-09-09T09:48:59;10.80;;;2.47;;
14518;SDS011;7346;50.846;4.388;2022-09-09T09:51:26;9.30;;;2.10;;
14518;SDS011;7346;50.846;4.388;2022-09-09T09:54:14;11.10;;;2.40;;
14518;SDS011;7346;50.846;4.388;2022-09-09T09:56:45;13.70;;;2.63;;
14518;SDS011;7346;50.846;4.388;2022-09-09T09:59:31;6.73;;;2.07;;
14518;SDS011;7346;50.846;4.388;2022-09-09T10:02:11;8.30;;;2.47;;
14518;SDS011;7346;50.846;4.388;2022-09-09T10:04:44;8.87;;;2.53;;
14518;SDS011;7346;50.846;4.388;2022-09-09T10:07:12;12.23;;;3.83;;
14518;SDS011;7346;50.846;4.388;2022-09-09T10:09:43;6.37;;;2.10;;
14518;SDS011;7346;50.846;4.388;2022-09-09T10:12:14;8.13;;;2.20;;
14518;SDS011;7346;50.846;4.388;2022-09-09T10:14:55;5.07;;;1.95;;
14518;SDS011;7346;50.846;4.388;2022-09-09T10:17:30;8.20;;;2.30;;
14518;SDS011;7346;50.846;4.388;2022-09-09T10:20:11;9.63;;;2.40;;
14518;SDS011;7346;50.846;4.388;2022-09-09T10:22:47;8.57;;;2.38;;
14518;SDS011;7346;50.846;4.388;2022-09-09T10:25:19;10.10;;;2.47;;
14518;SDS011;7346;50.846;4.388;2022-09-09T10:28:02;8.40;;;2.22;;
14518;SDS011;7346;50.846;4.388;2022-09-09T10:30:46;5.53;;;2.07;;
14518;SDS011;7346;50.846;4.388;2022-09-09T10:33:24;7.05;;;2.15;;
14518;SDS011;7346;50.846;4.388;2022-09-09T10:36:00;8.68;;;2.35;;
14518;SDS011;7346;50.846;4.388;2022-09-09T10:38:38;8.77;;;2.53;;
14518;SDS011;7346;50.846;4.388;2022-09-09T10:41:22;9.35;;;2.63;;
14518;SDS011;7346;50.846;4.388;2022-09-09T10:44:25;7.35;;;2.33;;
14518;SDS011;7346;50.846;4.388;2022-09-09T10:47:11;7.90;;;1.80;;
14518;SDS011;7346;50.846;4.388;2022-09-09T10:50:08;10.65;;;2.17;;
14518;SDS011;7346;50.846;4.388;2022-09-09T10:52:46;7.50;;;2.35;;
14518;SDS011;7346;50.846;4.388;2022-09-09T10:55:21;9.45;;;2.40;;
14518;SDS011;7346;50.846;4.388;2022-09-09T10:57:52;11.15;;;2.30;;
14518;SDS011;7346;50.846;4.388;2022-09-09T11:00:23;8.68;;;2.15;;
14518;SDS011;7346;50.846;4.388;2022-09-09T11:02:54;9.38;;;2.28;;
14518;SDS011;7346;50.846;4.388;2022-09-09T11:05:24;8.95;;;2.60;;
14518;SDS011;7346;50.846;4.388;2022-09-09T11:07:56;9.18;;;2.38;;
14518;SDS011;7346;50.846;4.388;2022-09-09T11:10:29;5.65;;;1.70;;
14518;SDS011;7346;50.846;4.388;2022-09-09T11:13:05;7.40;;;2.10;;
14518;SDS011;7346;50.846;4.388;2022-09-09T11:15:39;6.45;;;2.03;;
14518;SDS011;7346;50.846;4.388;2022-09-09T11:18:11;6.93;;;1.85;;
14518;SDS011;7346;50.846;4.388;2022-09-09T11:20:43;12.70;;;2.13;;
14518;SDS011;7346;50.846;4.388;2022-09-09T11:23:13;6.15;;;1.90;;
14518;SDS011;7346;50.846;4.388;2022-09-09T11:25:43;10.85;;;2.20;;
14518;SDS011;7346;50.846;4.388;2022-09-09T11:28:27;11.32;;;2.17;;
14518;SDS011;7346;50.846;4.388;2022-09-09T11:31:04;10.95;;;2.05;;
14518;SDS011;7346;50.846;4.388;2022-09-09T11:33:46;9.55;;;2.00;;
14518;SDS011;7346;50.846;4.388;2022-09-09T11:36:35;8.25;;;2.15;;
14518;SDS011;7346;50.846;4.388;2022-09-09T11:42:15;6.50;;;1.95;;
14518;SDS011;7346;50.846;4.388;2022-09-09T11:44:44;6.97;;;2.00;;
14518;SDS011;7346;50.846;4.388;2022-09-09T11:47:22;5.90;;;1.70;;
14518;SDS011;7346;50.846;4.388;2022-09-09T11:50:06;7.10;;;1.60;;
14518;SDS011;7346;50.846;4.388;2022-09-09T11:52:38;6.43;;;1.52;;
14518;SDS011;7346;50.846;4.388;2022-09-09T11:55:11;5.75;;;1.25;;
14518;SDS011;7346;50.846;4.388;2022-09-09T11:57:56;5.75;;;1.50;;
14518;SDS011;7346;50.846;4.388;2022-09-09T12:00:29;5.75;;;1.60;;
14518;SDS011;7346;50.846;4.388;2022-09-09T12:02:59;7.88;;;1.65;;
14518;SDS011;7346;50.846;4.388;2022-09-09T12:05:36;8.75;;;2.30;;
14518;SDS011;7346;50.846;4.388;2022-09-09T12:08:07;7.82;;;1.80;;
14518;SDS011;7346;50.846;4.388;2022-09-09T12:10:38;8.82;;;2.05;;
14518;SDS011;7346;50.846;4.388;2022-09-09T12:13:15;7.30;;;1.95;;
14518;SDS011;7346;50.846;4.388;2022-09-09T12:15:47;8.95;;;1.98;;
14518;SDS011;7346;50.846;4.388;2022-09-09T12:18:21;6.50;;;1.90;;
14518;SDS011;7346;50.846;4.388;2022-09-09T12:20:54;6.47;;;1.67;;
14518;SDS011;7346;50.846;4.388;2022-09-09T12:23:33;6.45;;;1.83;;
14518;SDS011;7346;50.846;4.388;2022-09-09T12:26:12;5.85;;;1.77;;
14518;SDS011;7346;50.846;4.388;2022-09-09T12:28:53;8.63;;;1.85;;
14518;SDS011;7346;50.846;4.388;2022-09-09T12:31:30;8.80;;;1.92;;
14518;SDS011;7346;50.846;4.388;2022-09-09T12:34:08;5.03;;;1.70;;
14518;SDS011;7346;50.846;4.388;2022-09-09T12:36:38;8.55;;;2.00;;
14518;SDS011;7346;50.846;4.388;2022-09-09T12:39:14;6.68;;;2.03;;
14518;SDS011;7346;50.846;4.388;2022-09-09T12:41:50;6.78;;;2.00;;
14518;SDS011;7346;50.846;4.388;2022-09-09T12:44:22;7.32;;;1.80;;
14518;SDS011;7346;50.846;4.388;2022-09-09T12:46:50;12.98;;;1.98;;
14518;SDS011;7346;50.846;4.388;2022-09-09T12:49:24;5.97;;;1.83;;
14518;SDS011;7346;50.846;4.388;2022-09-09T12:51:57;11.43;;;1.95;;
14518;SDS011;7346;50.846;4.388;2022-09-09T12:54:25;5.75;;;1.42;;
14518;SDS011;7346;50.846;4.388;2022-09-09T12:56:53;4.65;;;1.63;;
14518;SDS011;7346;50.846;4.388;2022-09-09T12:59:23;5.10;;;1.58;;
14518;SDS011;7346;50.846;4.388;2022-09-09T13:01:57;3.75;;;1.33;;
14518;SDS011;7346;50.846;4.388;2022-09-09T13:04:24;4.20;;;1.33;;
14518;SDS011;7346;50.846;4.388;2022-09-09T13:06:51;3.00;;;1.20;;
14518;SDS011;7346;50.846;4.388;2022-09-09T13:09:20;5.68;;;1.88;;
14518;SDS011;7346;50.846;4.388;2022-09-09T13:11:47;4.03;;;1.70;;
14518;SDS011;7346;50.846;4.388;2022-09-09T13:14:17;3.05;;;1.50;;
14518;SDS011;7346;50.846;4.388;2022-09-09T13:16:55;3.80;;;1.58;;
14518;SDS011;7346;50.846;4.388;2022-09-09T13:19:23;5.93;;;1.80;;
14518;SDS011;7346;50.846;4.388;2022-09-09T13:21:52;6.35;;;1.58;;
14518;SDS011;7346;50.846;4.388;2022-09-09T13:24:29;6.70;;;2.17;;
14518;SDS011;7346;50.846;4.388;2022-09-09T13:26:58;3.90;;;1.77;;
14518;SDS011;7346;50.846;4.388;2022-09-09T13:29:27;6.60;;;1.80;;
14518;SDS011;7346;50.846;4.388;2022-09-09T13:31:54;5.82;;;1.70;;
14518;SDS011;7346;50.846;4.388;2022-09-09T13:34:31;4.05;;;1.23;;
14518;SDS011;7346;50.846;4.388;2022-09-09T13:37:01;6.95;;;1.58;;
14518;SDS011;7346;50.846;4.388;2022-09-09T13:39:32;3.13;;;1.50;;
14518;SDS011;7346;50.846;4.388;2022-09-09T13:42:01;4.63;;;1.17;;
14518;SDS011;7346;50.846;4.388;2022-09-09T13:44:30;3.67;;;1.40;;
14518;SDS011;7346;50.846;4.388;2022-09-09T13:47:01;10.23;;;1.45;;
14518;SDS011;7346;50.846;4.388;2022-09-09T13:49:30;3.30;;;1.17;;
14518;SDS011;7346;50.846;4.388;2022-09-09T13:52:03;3.78;;;1.30;;
14518;SDS011;7346;50.846;4.388;2022-09-09T13:54:33;3.35;;;1.30;;
14518;SDS011;7346;50.846;4.388;2022-09-09T13:57:01;6.47;;;1.63;;
14518;SDS011;7346;50.846;4.388;2022-09-09T13:59:29;3.92;;;1.10;;
14518;SDS011;7346;50.846;4.388;2022-09-09T14:01:56;4.22;;;1.30;;
14518;SDS011;7346;50.846;4.388;2022-09-09T14:04:24;3.08;;;1.10;;
14518;SDS011;7346;50.846;4.388;2022-09-09T14:06:51;4.40;;;1.48;;
14518;SDS011;7346;50.846;4.388;2022-09-09T14:09:18;6.15;;;1.45;;
14518;SDS011;7346;50.846;4.388;2022-09-09T14:11:46;3.30;;;1.00;;
14518;SDS011;7346;50.846;4.388;2022-09-09T14:14:13;3.10;;;1.30;;
14518;SDS011;7346;50.846;4.388;2022-09-09T14:16:40;3.97;;;1.30;;
14518;SDS011;7346;50.846;4.388;2022-09-09T14:19:07;7.63;;;1.75;;
14518;SDS011;7346;50.846;4.388;2022-09-09T14:21:35;5.55;;;1.50;;
14518;SDS011;7346;50.846;4.388;2022-09-09T14:24:02;9.02;;;2.15;;
14518;SDS011;7346;50.846;4.388;2022-09-09T14:26:29;7.53;;;1.80;;
14518;SDS011;7346;50.846;4.388;2022-09-09T14:28:57;5.13;;;1.88;;
14518;SDS011;7346;50.846;4.388;2022-09-09T14:31:25;3.85;;;1.40;;
14518;SDS011;7346;50.846;4.388;2022-09-09T14:33:52;3.22;;;1.42;;
14518;SDS011;7346;50.846;4.388;2022-09-09T14:36:19;4.05;;;1.30;;
14518;SDS011;7346;50.846;4.388;2022-09-09T14:38:46;6.75;;;1.50;;
14518;SDS011;7346;50.846;4.388;2022-09-09T14:41:14;5.85;;;1.60;;
14518;SDS011;7346;50.846;4.388;2022-09-09T14:43:42;4.75;;;1.60;;
14518;SDS011;7346;50.846;4.388;2022-09-09T14:46:12;3.65;;;1.35;;
14518;SDS011;7346;50.846;4.388;2022-09-09T14:48:40;4.60;;;1.42;;
14518;SDS011;7346;50.846;4.388;2022-09-09T14:51:07;4.43;;;1.50;;
14518;SDS011;7346;50.846;4.388;2022-09-09T14:53:36;5.57;;;1.48;;
14518;SDS011;7346;50.846;4.388;2022-09-09T14:56:03;5.35;;;1.48;;
14518;SDS011;7346;50.846;4.388;2022-09-09T14:58:32;5.07;;;1.48;;
14518;SDS011;7346;50.846;4.388;2022-09-09T15:01:03;5.88;;;1.60;;
14518;SDS011;7346;50.846;4.388;2022-09-09T15:03:32;7.82;;;1.60;;
14518;SDS011;7346;50.846;4.388;2022-09-09T15:06:04;6.57;;;1.50;;
14518;SDS011;7346;50.846;4.388;2022-09-09T15:08:33;4.72;;;1.20;;
14518;SDS011;7346;50.846;4.388;2022-09-09T15:11:00;2.83;;;1.10;;
14518;SDS011;7346;50.846;4.388;2022-09-09T15:13:28;9.63;;;1.77;;
14518;SDS011;7346;50.846;4.388;2022-09-09T15:15:55;6.93;;;2.08;;
14518;SDS011;7346;50.846;4.388;2022-09-09T15:18:23;10.43;;;1.90;;
14518;SDS011;7346;50.846;4.388;2022-09-09T15:20:51;4.22;;;1.25;;
14518;SDS011;7346;50.846;4.388;2022-09-09T15:23:24;7.22;;;1.95;;
14518;SDS011;7346;50.846;4.388;2022-09-09T15:25:52;4.82;;;1.25;;
14518;SDS011;7346;50.846;4.388;2022-09-09T15:28:20;6.78;;;1.70;;